createdAt,value
2023-04-06T00:03:20.741Z,2.92
2023-04-06T00:08:24.661Z,3.58
2023-04-06T00:13:27.682Z,4.80
2023-04-06T00:18:30.132Z,3.90
2023-04-06T00:23:32.424Z,4.95
2023-04-06T00:28:34.663Z,4.30
2023-04-06T00:33:36.881Z,5.18
2023-04-06T00:38:39.093Z,4.47
2023-04-06T00:43:41.682Z,4.93
2023-04-06T00:48:44.016Z,4.35
2023-04-06T00:53:47.269Z,4.63
2023-04-06T00:58:50.559Z,4.18
2023-04-06T01:03:52.910Z,5.18
2023-04-06T01:08:57.491Z,4.78
2023-04-06T01:14:01.939Z,4.65
2023-04-06T01:19:14.408Z,4.00
2023-04-06T01:24:22.338Z,4.70
2023-04-06T01:29:50.985Z,3.97
2023-04-06T01:35:15.762Z,4.13
2023-04-06T01:40:27.577Z,3.90
2023-04-06T01:45:29.929Z,3.70
2023-04-06T01:50:38.222Z,4.20
2023-04-06T01:55:40.566Z,4.25
2023-04-06T02:00:55.488Z,4.85
2023-04-06T02:05:57.897Z,3.55
2023-04-06T02:11:06.202Z,3.53
2023-04-06T02:16:23.149Z,4.50
2023-04-06T02:21:25.643Z,3.88
2023-04-06T02:26:27.843Z,3.65
2023-04-06T02:31:30.034Z,4.50
2023-04-06T02:36:32.317Z,4.68
2023-04-06T02:41:34.537Z,4.30
2023-04-06T02:46:36.791Z,4.32
2023-04-06T02:51:39.618Z,4.47
2023-04-06T02:57:02.179Z,4.88
2023-04-06T03:02:18.369Z,4.32
2023-04-06T03:07:21.625Z,5.32
2023-04-06T03:12:23.908Z,4.72
2023-04-06T03:17:49.355Z,4.03
2023-04-06T03:23:11.859Z,4.32
2023-04-06T03:28:17.562Z,4.18
2023-04-06T03:33:28.214Z,3.92
2023-04-06T03:38:31.417Z,3.33
2023-04-06T03:43:34.161Z,3.55
2023-04-06T03:48:37.371Z,3.15
2023-04-06T03:53:42.022Z,2.90
2023-04-06T03:58:46.210Z,1.70
2023-04-06T04:03:51.441Z,1.40
2023-04-06T04:08:54.133Z,1.33
2023-04-06T04:13:56.436Z,1.00
2023-04-06T04:18:59.878Z,1.15
2023-04-06T04:24:02.184Z,0.98
2023-04-06T04:29:04.648Z,0.77
2023-04-06T04:34:07.976Z,0.63
2023-04-06T04:39:10.878Z,0.68
2023-04-06T04:44:17.808Z,0.93
2023-04-06T04:49:20.346Z,0.70
2023-04-06T04:54:25.760Z,0.95
2023-04-06T04:59:28.131Z,0.90
2023-04-06T05:04:39.688Z,0.73
2023-04-06T05:09:44.737Z,0.90
2023-04-06T05:14:48.779Z,0.68
2023-04-06T05:19:53.797Z,0.60
2023-04-06T05:24:59.850Z,1.20
2023-04-06T05:30:02.468Z,1.00
2023-04-06T05:35:08.978Z,1.00
2023-04-06T05:40:11.401Z,1.30
2023-04-06T05:45:17.829Z,1.35
2023-04-06T05:50:24.248Z,1.10
2023-04-06T05:55:28.838Z,1.00
2023-04-06T06:00:47.005Z,1.10
2023-04-06T06:05:51.616Z,4.40
2023-04-06T06:11:02.880Z,4.90
2023-04-06T06:16:06.509Z,2.00
2023-04-06T06:21:13.510Z,1.10
2023-04-06T06:26:17.821Z,1.20
2023-04-06T06:31:23.538Z,1.13
2023-04-06T06:41:29.172Z,0.90
2023-04-06T06:46:31.595Z,1.65
2023-04-06T06:51:33.924Z,3.78
2023-04-06T06:56:38.988Z,2.70
2023-04-06T07:01:42.371Z,1.80
2023-04-06T07:06:45.634Z,1.88
2023-04-06T07:11:47.895Z,2.20
2023-04-06T07:16:51.214Z,1.55
2023-04-06T07:21:53.811Z,1.38
2023-04-06T07:26:57.778Z,1.42
2023-04-06T07:32:00.820Z,1.00
2023-04-06T07:37:04.282Z,1.05
2023-04-06T07:42:07.672Z,0.90
2023-04-06T07:47:10.244Z,0.85
2023-04-06T07:52:13.387Z,1.20
2023-04-06T07:57:17.681Z,1.30
2023-04-06T08:02:20.050Z,1.00
2023-04-06T08:07:22.252Z,1.00
2023-04-06T08:12:24.442Z,1.30
2023-04-06T08:17:28.504Z,1.10
2023-04-06T08:22:30.705Z,1.30
2023-04-06T08:27:33.569Z,1.48
2023-04-06T08:32:35.943Z,1.45
2023-04-06T08:37:38.197Z,1.50
2023-04-06T08:42:50.602Z,1.60
2023-04-06T08:47:55.987Z,1.70
2023-04-06T08:52:58.305Z,1.80
2023-04-06T08:58:01.287Z,2.33
2023-04-06T09:03:06.601Z,2.55
2023-04-06T09:08:09.287Z,1.92
2023-04-06T09:13:11.609Z,1.83
2023-04-06T09:18:13.842Z,2.10
2023-04-06T09:23:20.075Z,1.38
2023-04-06T09:28:22.357Z,1.83
2023-04-06T09:33:25.020Z,1.65
2023-04-06T09:38:27.228Z,1.92
2023-04-06T09:43:30.207Z,1.58
2023-04-06T09:48:34.799Z,1.23
2023-04-06T09:53:40.411Z,1.40
2023-04-06T09:58:47.366Z,1.63
2023-04-06T10:04:19.203Z,2.00
2023-04-06T10:09:26.196Z,2.03
2023-04-06T10:14:28.413Z,1.65
2023-04-06T10:19:37.760Z,2.03
2023-04-06T10:24:40.117Z,1.60
2023-04-06T10:29:47.924Z,1.13
2023-04-06T10:34:50.133Z,1.60
2023-04-06T10:40:01.417Z,1.63
2023-04-06T10:45:07.651Z,1.60
2023-04-06T10:50:12.323Z,1.67
2023-04-06T10:55:18.184Z,2.47
2023-04-06T11:00:21.380Z,2.05
2023-04-06T11:05:23.542Z,1.80
2023-04-06T11:10:25.698Z,2.65
2023-04-06T11:15:28.027Z,1.75
2023-04-06T11:20:30.368Z,1.92
2023-04-06T11:25:33.915Z,1.83
2023-04-06T11:30:36.263Z,2.47
2023-04-06T11:35:38.678Z,2.63
2023-04-06T11:40:40.922Z,2.35
2023-04-06T11:45:44.230Z,2.05
2023-04-06T11:50:49.643Z,2.10
2023-04-06T11:55:51.987Z,1.98
2023-04-06T12:00:54.183Z,2.35
2023-04-06T12:05:58.171Z,1.92
2023-04-06T12:11:01.863Z,2.20
2023-04-06T12:16:03.987Z,1.90
2023-04-06T12:21:06.565Z,1.70
2023-04-06T12:26:13.335Z,2.30
2023-04-06T12:31:17.746Z,1.88
2023-04-06T12:36:22.160Z,1.90
2023-04-06T12:41:24.495Z,1.75
2023-04-06T12:46:27.172Z,1.30
2023-04-06T12:51:29.680Z,1.35
2023-04-06T12:56:32.204Z,1.33
2023-04-06T13:01:35.142Z,1.38
2023-04-06T13:06:37.540Z,1.15
2023-04-06T13:11:39.938Z,1.30
2023-04-06T13:16:42.254Z,1.40
2023-04-06T13:21:44.518Z,1.10
2023-04-06T13:26:47.009Z,1.17
2023-04-06T13:31:49.180Z,1.02
2023-04-06T13:36:51.766Z,0.75
2023-04-06T13:41:57.734Z,0.88
2023-04-06T13:47:00.621Z,1.25
2023-04-06T13:52:02.804Z,1.50
2023-04-06T13:57:06.782Z,1.33
2023-04-06T14:02:10.934Z,1.60
2023-04-06T14:07:13.151Z,1.52
2023-04-06T14:12:15.233Z,1.70
2023-04-06T14:17:17.344Z,1.60
2023-04-06T14:22:19.479Z,1.40
2023-04-06T14:27:22.063Z,1.65
2023-04-06T14:32:25.915Z,1.30
2023-04-06T14:37:28.144Z,2.08
2023-04-06T14:42:30.658Z,1.30
2023-04-06T14:47:33.224Z,1.23
2023-04-06T14:52:36.029Z,1.67
2023-04-06T14:57:38.666Z,1.50
2023-04-06T15:02:41.215Z,0.90
2023-04-06T15:07:43.514Z,1.05
2023-04-06T15:12:45.640Z,1.45
2023-04-06T15:17:47.789Z,1.48
2023-04-06T15:22:49.958Z,1.30
2023-04-06T15:27:52.009Z,1.10
2023-04-06T15:33:01.750Z,1.20
2023-04-06T15:38:03.933Z,1.20
2023-04-06T15:43:05.996Z,1.20
2023-04-06T15:48:08.983Z,1.00
2023-04-06T15:53:11.129Z,1.10
2023-04-06T15:58:13.279Z,1.20
2023-04-06T16:03:15.658Z,1.13
2023-04-06T16:08:19.409Z,1.58
2023-04-06T16:13:21.722Z,1.10
2023-04-06T16:18:23.822Z,1.13
2023-04-06T16:23:25.996Z,0.93
2023-04-06T16:28:28.454Z,0.73
2023-04-06T16:33:30.501Z,1.00
2023-04-06T16:38:35.717Z,1.30
2023-04-06T16:43:37.818Z,1.35
2023-04-06T16:48:39.999Z,1.52
2023-04-06T16:53:42.049Z,1.50
2023-04-06T16:58:45.655Z,1.67
2023-04-06T17:03:48.207Z,1.65
2023-04-06T17:08:51.215Z,1.40
2023-04-06T17:13:53.444Z,1.38
2023-04-06T17:18:55.740Z,1.30
2023-04-06T17:23:57.866Z,1.58
2023-04-06T17:28:59.883Z,1.15
2023-04-06T17:34:02.555Z,1.23
2023-04-06T17:39:04.831Z,1.73
2023-04-06T17:44:06.940Z,1.60
2023-04-06T17:49:09.441Z,1.58
2023-04-06T17:54:11.709Z,1.75
2023-04-06T17:59:13.856Z,2.00
2023-04-06T18:04:16.142Z,1.60
2023-04-06T18:09:18.221Z,1.40
2023-04-06T18:14:20.409Z,1.10
2023-04-06T18:19:22.461Z,1.25
2023-04-06T18:24:40.489Z,1.45
2023-04-06T18:29:45.338Z,2.10
2023-04-06T18:34:47.478Z,1.40
2023-04-06T18:39:49.646Z,1.40
2023-04-06T18:44:51.674Z,1.65
2023-04-06T18:49:53.864Z,1.45
2023-04-06T18:54:55.973Z,1.10
2023-04-06T18:59:58.181Z,2.35
2023-04-06T19:05:00.599Z,1.23
2023-04-06T19:10:02.794Z,1.80
2023-04-06T19:15:06.453Z,1.27
2023-04-06T19:20:08.924Z,1.33
2023-04-06T19:25:11.710Z,1.20
2023-04-06T19:30:13.874Z,1.10
2023-04-06T19:35:16.151Z,1.20
2023-04-06T19:40:18.236Z,1.20
2023-04-06T19:45:20.702Z,1.20
2023-04-06T19:50:22.853Z,1.95
2023-04-06T19:55:24.936Z,2.15
2023-04-06T20:00:27.164Z,2.35
2023-04-06T20:05:29.221Z,2.67
2023-04-06T20:10:31.336Z,2.35
2023-04-06T20:15:33.464Z,2.72
2023-04-06T20:20:35.506Z,2.25
2023-04-06T20:25:37.588Z,2.60
2023-04-06T20:30:40.060Z,2.80
2023-04-06T20:35:42.082Z,2.25
2023-04-06T20:40:47.012Z,2.22
2023-04-06T20:45:49.542Z,2.60
2023-04-06T20:50:51.755Z,2.22
2023-04-06T20:55:55.210Z,2.00
2023-04-06T21:00:57.336Z,2.63
2023-04-06T21:05:59.917Z,2.30
2023-04-06T21:11:02.576Z,1.90
2023-04-06T21:16:05.669Z,2.10
2023-04-06T21:21:07.803Z,1.73
2023-04-06T21:26:12.814Z,1.65
2023-04-06T21:31:16.672Z,3.17
2023-04-06T21:36:19.290Z,3.95
2023-04-06T21:41:21.968Z,4.03
2023-04-06T21:46:24.096Z,3.35
2023-04-06T21:51:26.528Z,3.08
2023-04-06T21:56:28.601Z,3.40
2023-04-06T22:01:30.916Z,3.00
2023-04-06T22:06:32.921Z,2.30
2023-04-06T22:11:35.100Z,2.63
2023-04-06T22:16:37.240Z,2.20
2023-04-06T22:21:39.404Z,2.55
2023-04-06T22:26:41.731Z,2.65
2023-04-06T22:31:45.550Z,2.55
2023-04-06T22:36:49.180Z,2.53
2023-04-06T22:41:51.267Z,2.72
2023-04-06T22:46:53.397Z,2.55
2023-04-06T22:51:55.452Z,2.63
2023-04-06T22:56:57.547Z,2.13
2023-04-06T23:01:59.948Z,2.40
2023-04-06T23:07:02.179Z,2.70
2023-04-06T23:12:04.440Z,2.65
2023-04-06T23:17:06.862Z,2.10
2023-04-06T23:22:09.110Z,2.40
2023-04-06T23:27:11.310Z,1.90
2023-04-06T23:32:13.444Z,2.20
2023-04-06T23:37:15.730Z,1.85
2023-04-06T23:42:17.872Z,1.75
2023-04-06T23:47:20.035Z,2.10
2023-04-06T23:52:22.265Z,2.00
2023-04-06T23:57:24.403Z,2.15
